College City, California
Current Conditions -  °F | °C
As of 4:53 PM on Wednesday 26 Nov 2014 (Local Time) from KSMF Reporting Station
Broken Clouds Broken Clouds  
Wind Chill: 57°   Ceiling: 26000
Heat Index: 57°   Visibility: 10mi
Dew Point: 46°   Wind: 0mph
Humidity: 67%   Direction: NA
Pressure: 30.22"   Gusts: NA
Location:  39.01°N, 122.01°W
Report Text: KSMF 270053Z 00000KT 10SM BKN260 BKN300 14/08 A3022 RMK AO2 SLP233 T01390078
Loading
Personal Weather Stations






























Interactive Weather Map New forecast layout! Learn more

10-Day Weather Forecast

Advertisements
Track Severe Weather on mobile